createdAt,value
2017-11-20T00:01:24.913Z,3.53
2017-11-20T00:03:51.546Z,2.83
2017-11-20T00:06:18.148Z,3.40
2017-11-20T00:08:44.758Z,3.20
2017-11-20T00:11:11.350Z,3.00
2017-11-20T00:13:37.976Z,3.13
2017-11-20T00:16:04.607Z,3.40
2017-11-20T00:18:31.185Z,3.20
2017-11-20T00:20:57.791Z,3.77
2017-11-20T00:23:24.400Z,3.03
2017-11-20T00:25:51.159Z,3.80
2017-11-20T00:28:18.033Z,3.65
2017-11-20T00:30:44.650Z,3.70
2017-11-20T00:33:11.287Z,2.80
2017-11-20T00:35:37.950Z,2.83
2017-11-20T00:38:04.547Z,2.93
2017-11-20T00:40:31.151Z,3.40
2017-11-20T00:42:57.753Z,3.37
2017-11-20T00:45:24.367Z,3.33
2017-11-20T00:47:50.965Z,3.17
2017-11-20T00:50:17.590Z,3.60
2017-11-20T00:52:44.166Z,3.60
2017-11-20T00:55:10.771Z,3.80
2017-11-20T00:57:37.390Z,3.20
2017-11-20T01:00:03.982Z,3.67
2017-11-20T01:02:30.584Z,4.00
2017-11-20T01:04:57.176Z,4.60
2017-11-20T01:07:23.810Z,3.70
2017-11-20T01:09:50.395Z,3.53
2017-11-20T01:12:16.993Z,3.57
2017-11-20T01:14:43.588Z,3.47
2017-11-20T01:17:10.192Z,3.90
2017-11-20T01:19:36.797Z,4.00
2017-11-20T01:22:03.398Z,4.03
2017-11-20T01:24:30.031Z,4.50
2017-11-20T01:26:56.630Z,5.83
2017-11-20T01:29:23.253Z,5.40
2017-11-20T01:31:50.079Z,5.07
2017-11-20T01:34:16.689Z,5.03
2017-11-20T01:36:43.273Z,5.20
2017-11-20T01:39:09.887Z,5.90
2017-11-20T01:41:36.486Z,5.30
2017-11-20T01:44:03.093Z,5.67
2017-11-20T01:46:29.726Z,5.47
2017-11-20T01:48:56.363Z,6.07
2017-11-20T01:51:22.946Z,4.83
2017-11-20T01:53:49.584Z,5.40
2017-11-20T01:56:16.205Z,5.60
2017-11-20T01:58:42.813Z,5.50
2017-11-20T02:01:09.442Z,4.70
2017-11-20T02:03:36.032Z,4.80
2017-11-20T02:06:02.696Z,4.60
2017-11-20T02:08:29.305Z,5.40
2017-11-20T02:10:55.933Z,5.37
2017-11-20T02:13:22.552Z,4.93
2017-11-20T02:15:49.154Z,5.50
2017-11-20T02:18:15.812Z,5.43
2017-11-20T02:20:42.401Z,5.20
2017-11-20T02:23:09.187Z,4.40
2017-11-20T02:25:35.766Z,5.43
2017-11-20T02:28:02.371Z,5.53
2017-11-20T02:30:28.970Z,4.93
2017-11-20T02:32:55.578Z,6.30
2017-11-20T02:35:22.206Z,5.07
2017-11-20T02:37:48.801Z,4.73
2017-11-20T02:40:15.411Z,5.87
2017-11-20T02:42:42.039Z,4.80
2017-11-20T02:45:08.626Z,5.20
2017-11-20T02:47:35.244Z,4.77
2017-11-20T02:50:01.846Z,4.90
2017-11-20T02:52:28.740Z,5.90
2017-11-20T02:54:55.343Z,4.97
2017-11-20T02:57:21.923Z,5.20
2017-11-20T02:59:48.531Z,5.17
2017-11-20T03:02:15.179Z,4.83
2017-11-20T03:04:41.790Z,4.50
2017-11-20T03:07:08.396Z,5.63
2017-11-20T03:09:35.219Z,4.80
2017-11-20T03:12:01.819Z,4.40
2017-11-20T03:14:28.470Z,4.63
2017-11-20T03:16:55.112Z,5.27
2017-11-20T03:19:21.713Z,4.60
2017-11-20T03:21:48.370Z,4.67
2017-11-20T03:24:14.996Z,4.53
2017-11-20T03:26:41.620Z,4.30
2017-11-20T03:29:08.221Z,4.53
2017-11-20T03:31:34.809Z,4.70
2017-11-20T03:34:01.398Z,4.30
2017-11-20T03:36:28.008Z,4.70
2017-11-20T03:38:54.591Z,4.60
2017-11-20T03:41:21.207Z,4.03
2017-11-20T03:43:47.796Z,4.37
2017-11-20T03:46:14.412Z,4.70
2017-11-20T03:48:40.994Z,3.60
2017-11-20T03:51:07.598Z,4.80
2017-11-20T03:53:34.214Z,3.80
2017-11-20T03:56:00.863Z,5.00
2017-11-20T03:58:27.511Z,4.10
2017-11-20T04:00:54.122Z,3.87
2017-11-20T04:03:20.735Z,4.27
2017-11-20T04:05:47.325Z,3.87
2017-11-20T04:08:14.024Z,3.57
2017-11-20T04:10:40.616Z,4.00
2017-11-20T04:13:07.261Z,3.77
2017-11-20T04:15:33.865Z,3.77
2017-11-20T04:18:00.486Z,3.97
2017-11-20T04:20:27.094Z,4.83
2017-11-20T04:22:53.670Z,3.80
2017-11-20T04:25:20.274Z,3.93
2017-11-20T04:27:46.913Z,4.50
2017-11-20T04:30:13.535Z,4.67
2017-11-20T04:32:40.118Z,3.80
2017-11-20T04:35:06.814Z,3.43
2017-11-20T04:37:33.418Z,3.57
2017-11-20T04:40:00.022Z,3.77
2017-11-20T04:42:26.609Z,3.70
2017-11-20T04:44:53.231Z,3.30
2017-11-20T04:47:19.845Z,3.70
2017-11-20T04:49:46.466Z,3.83
2017-11-20T04:52:13.063Z,3.80
2017-11-20T04:54:39.659Z,3.83
2017-11-20T04:57:06.262Z,5.27
2017-11-20T04:59:32.878Z,3.63
2017-11-20T05:01:59.476Z,3.33
2017-11-20T05:04:26.068Z,4.10
2017-11-20T05:06:52.728Z,3.87
2017-11-20T05:09:19.302Z,3.87
2017-11-20T05:11:45.929Z,4.10
2017-11-20T05:14:12.544Z,5.60
2017-11-20T05:16:39.176Z,4.40
2017-11-20T05:19:05.795Z,4.10
2017-11-20T05:21:32.382Z,4.13
2017-11-20T05:23:58.983Z,4.00
2017-11-20T05:26:25.574Z,4.80
2017-11-20T05:28:52.405Z,4.53
2017-11-20T05:31:19.005Z,4.10
2017-11-20T05:33:45.642Z,4.20
2017-11-20T05:36:12.238Z,4.20
2017-11-20T05:38:38.883Z,5.00
2017-11-20T05:41:05.481Z,5.20
2017-11-20T05:43:32.114Z,4.40
2017-11-20T05:45:58.722Z,4.77
2017-11-20T05:48:25.393Z,5.83
2017-11-20T05:50:51.989Z,5.13
2017-11-20T05:53:19.979Z,4.77
2017-11-20T05:55:46.764Z,4.97
2017-11-20T05:58:13.356Z,13.53
2017-11-20T06:00:40.408Z,7.90
2017-11-20T06:03:07.739Z,10.80
2017-11-20T06:05:34.368Z,7.27
2017-11-20T06:08:01.057Z,5.97
2017-11-20T06:10:27.661Z,5.07
2017-11-20T06:12:54.263Z,4.60
2017-11-20T06:15:20.879Z,5.20
2017-11-20T06:17:47.580Z,4.87
2017-11-20T06:20:14.205Z,5.40
2017-11-20T06:22:40.857Z,5.83
2017-11-20T06:25:07.508Z,5.30
2017-11-20T06:27:34.134Z,3.87
2017-11-20T06:30:00.745Z,5.23
2017-11-20T06:32:27.409Z,4.57
2017-11-20T06:34:54.033Z,5.10
2017-11-20T06:37:20.637Z,5.00
2017-11-20T06:39:47.250Z,4.20
2017-11-20T06:42:13.970Z,4.70
2017-11-20T06:44:40.592Z,5.10
2017-11-20T06:47:07.405Z,4.47
2017-11-20T06:49:34.085Z,4.40
2017-11-20T06:52:00.701Z,4.70
2017-11-20T06:54:27.316Z,5.07
2017-11-20T06:56:53.920Z,4.43
2017-11-20T06:59:20.526Z,4.37
2017-11-20T07:01:47.119Z,5.73
2017-11-20T07:04:13.729Z,5.57
2017-11-20T07:06:40.355Z,5.07
2017-11-20T07:09:06.960Z,4.90
2017-11-20T07:11:33.545Z,4.63
2017-11-20T07:14:00.181Z,5.60
2017-11-20T07:16:26.785Z,5.20
2017-11-20T07:18:53.664Z,5.63
2017-11-20T07:21:20.277Z,5.10
2017-11-20T07:23:46.899Z,5.10
2017-11-20T07:26:19.306Z,5.60
2017-11-20T07:28:51.779Z,4.77
2017-11-20T07:31:24.153Z,5.33
2017-11-20T07:33:56.598Z,4.97
2017-11-20T07:36:28.935Z,4.97
2017-11-20T07:39:01.509Z,6.13
2017-11-20T07:41:34.023Z,5.33
2017-11-20T07:44:00.635Z,5.50
2017-11-20T07:46:27.245Z,5.53
2017-11-20T07:48:53.863Z,5.67
2017-11-20T07:51:20.720Z,6.10
2017-11-20T07:53:47.369Z,6.37
2017-11-20T07:56:14.009Z,7.37
2017-11-20T07:58:40.608Z,7.10
2017-11-20T08:01:07.282Z,6.73
2017-11-20T08:03:33.911Z,6.57
2017-11-20T08:06:00.510Z,7.00
2017-11-20T08:08:27.106Z,8.37
2017-11-20T08:10:53.767Z,7.70
2017-11-20T08:13:20.369Z,8.30
2017-11-20T08:15:46.956Z,8.13
2017-11-20T08:18:13.560Z,7.77
2017-11-20T08:20:40.147Z,9.30
2017-11-20T08:23:06.758Z,8.10
2017-11-20T08:25:33.369Z,9.37
2017-11-20T08:27:59.985Z,9.03
2017-11-20T08:30:26.622Z,8.90
2017-11-20T08:32:53.246Z,10.00
2017-11-20T08:35:19.845Z,10.77
2017-11-20T08:37:46.478Z,11.37
2017-11-20T08:40:13.086Z,11.33
2017-11-20T08:42:39.702Z,11.37
2017-11-20T08:45:06.313Z,10.60
2017-11-20T08:47:32.952Z,10.93
2017-11-20T08:49:59.578Z,11.13
2017-11-20T08:52:26.228Z,10.70
2017-11-20T08:54:52.899Z,11.60
2017-11-20T08:57:19.487Z,14.40
2017-11-20T08:59:46.116Z,11.20
2017-11-20T09:02:12.735Z,12.50
2017-11-20T09:04:39.347Z,15.63
2017-11-20T09:07:05.976Z,15.70
2017-11-20T09:09:32.576Z,17.20
2017-11-20T09:11:59.285Z,11.47
2017-11-20T09:14:25.914Z,13.60
2017-11-20T09:16:52.632Z,14.13
2017-11-20T09:19:19.203Z,12.80
2017-11-20T09:21:45.807Z,14.73
2017-11-20T09:24:12.481Z,14.47
2017-11-20T09:26:39.089Z,13.43
2017-11-20T09:29:05.701Z,13.23
2017-11-20T09:31:32.502Z,14.53
2017-11-20T09:33:59.115Z,13.60
2017-11-20T09:36:25.820Z,14.13
2017-11-20T09:38:52.431Z,14.47
2017-11-20T09:41:19.048Z,15.27
2017-11-20T09:43:45.714Z,14.07
2017-11-20T09:46:12.319Z,14.33
2017-11-20T09:48:38.947Z,16.13
2017-11-20T09:51:05.573Z,18.50
2017-11-20T09:53:32.203Z,16.33
2017-11-20T09:55:58.797Z,16.63
2017-11-20T09:58:25.430Z,14.53
2017-11-20T10:00:52.053Z,16.93
2017-11-20T10:03:18.680Z,14.17
2017-11-20T10:05:45.310Z,15.63
2017-11-20T10:08:11.929Z,15.10
2017-11-20T10:10:38.567Z,14.77
2017-11-20T10:13:05.161Z,15.37
2017-11-20T10:15:31.782Z,15.50
2017-11-20T10:17:58.398Z,15.30
2017-11-20T10:20:25.022Z,17.00
2017-11-20T10:22:51.634Z,15.73
2017-11-20T10:25:18.218Z,16.60
2017-11-20T10:27:44.834Z,16.37
2017-11-20T10:30:11.447Z,18.13
2017-11-20T10:32:38.069Z,15.73
2017-11-20T10:35:04.679Z,15.77
2017-11-20T10:37:31.296Z,16.50
2017-11-20T10:39:57.882Z,16.97
2017-11-20T10:42:24.570Z,20.20
2017-11-20T10:44:51.151Z,17.03
2017-11-20T10:47:17.747Z,68.17
2017-11-20T10:49:44.421Z,22.27
2017-11-20T10:52:11.062Z,16.40
2017-11-20T10:54:37.693Z,17.37
2017-11-20T10:57:04.289Z,16.23
2017-11-20T10:59:30.896Z,16.13
2017-11-20T11:01:57.496Z,17.10
2017-11-20T11:04:24.130Z,16.07
2017-11-20T11:06:50.756Z,14.47
2017-11-20T11:09:17.385Z,15.07
2017-11-20T11:11:43.994Z,16.30
2017-11-20T11:14:10.610Z,16.83
2017-11-20T11:16:37.238Z,16.50
2017-11-20T11:19:03.908Z,15.10
2017-11-20T11:21:30.503Z,15.87
2017-11-20T11:23:57.128Z,14.83
2017-11-20T11:26:23.845Z,17.17
2017-11-20T11:28:50.443Z,17.53
2017-11-20T11:31:17.037Z,16.20
2017-11-20T11:33:43.639Z,17.23
2017-11-20T11:36:10.267Z,15.50
2017-11-20T11:38:36.869Z,14.43
2017-11-20T11:41:03.497Z,15.70
2017-11-20T11:43:30.140Z,15.60
2017-11-20T11:45:56.782Z,15.67
2017-11-20T11:48:23.443Z,15.27
2017-11-20T11:50:50.077Z,14.90
2017-11-20T11:53:16.696Z,15.77
2017-11-20T11:55:43.335Z,15.47
2017-11-20T11:58:10.363Z,13.73
2017-11-20T12:00:37.000Z,14.40
2017-11-20T12:03:03.695Z,14.37
2017-11-20T12:05:30.291Z,14.90
2017-11-20T12:07:56.927Z,14.90
2017-11-20T12:10:23.570Z,15.40
2017-11-20T12:12:50.173Z,15.17
2017-11-20T12:15:16.780Z,16.40
2017-11-20T12:17:43.391Z,15.17
2017-11-20T12:20:10.468Z,14.90
2017-11-20T12:22:37.071Z,15.10
2017-11-20T12:25:03.629Z,13.50
2017-11-20T12:27:30.304Z,15.40
2017-11-20T12:29:56.929Z,14.90
2017-11-20T12:32:23.584Z,14.93
2017-11-20T12:34:50.187Z,14.03
2017-11-20T12:37:16.809Z,13.60
2017-11-20T12:39:43.440Z,14.37
2017-11-20T12:42:10.074Z,14.10
2017-11-20T12:44:36.672Z,14.43
2017-11-20T12:47:03.300Z,12.70
2017-11-20T12:49:29.914Z,13.23
2017-11-20T12:51:56.534Z,13.20
2017-11-20T12:54:23.160Z,14.20
2017-11-20T12:56:49.782Z,13.50
2017-11-20T12:59:16.422Z,12.07
2017-11-20T13:01:43.077Z,11.70
2017-11-20T13:04:09.743Z,12.67
2017-11-20T13:06:36.416Z,13.07
2017-11-20T13:09:03.065Z,12.23
2017-11-20T13:11:29.669Z,12.00
2017-11-20T13:13:56.328Z,12.67
2017-11-20T13:16:22.956Z,11.33
2017-11-20T13:18:49.561Z,11.27
2017-11-20T13:21:16.190Z,11.70
2017-11-20T13:23:42.819Z,11.67
2017-11-20T13:26:09.448Z,12.40
2017-11-20T13:28:36.061Z,11.57
2017-11-20T13:31:02.675Z,10.93
2017-11-20T13:33:29.290Z,10.97
2017-11-20T13:35:55.914Z,10.10
2017-11-20T13:38:22.629Z,9.73
2017-11-20T13:40:49.237Z,9.50
2017-11-20T13:43:15.881Z,10.00
2017-11-20T13:45:42.463Z,9.33
2017-11-20T13:48:09.127Z,10.27
2017-11-20T13:50:35.727Z,10.33
2017-11-20T13:53:02.481Z,9.43
2017-11-20T13:55:29.101Z,9.07
2017-11-20T13:57:55.718Z,9.30
2017-11-20T14:00:22.341Z,11.10
2017-11-20T14:02:48.962Z,9.73
2017-11-20T14:05:15.625Z,9.77
2017-11-20T14:07:42.242Z,9.70
2017-11-20T14:10:08.855Z,10.40
2017-11-20T14:12:35.498Z,9.50
2017-11-20T14:15:02.108Z,11.00
2017-11-20T14:17:28.740Z,11.43
2017-11-20T14:19:55.344Z,8.70
2017-11-20T14:22:21.941Z,9.93
2017-11-20T14:24:48.576Z,7.97
2017-11-20T14:27:15.171Z,8.77
2017-11-20T14:29:41.782Z,7.93
2017-11-20T14:32:08.515Z,9.23
2017-11-20T14:34:35.158Z,8.50
2017-11-20T14:37:01.745Z,9.70
2017-11-20T14:39:28.392Z,10.30
2017-11-20T14:41:54.993Z,10.47
2017-11-20T14:44:21.628Z,10.40
2017-11-20T14:46:58.985Z,8.70
2017-11-20T14:49:25.616Z,10.10
2017-11-20T14:51:54.099Z,9.60
2017-11-20T14:54:23.606Z,10.57
2017-11-20T14:56:50.207Z,11.60
2017-11-20T14:59:16.830Z,9.93
2017-11-20T15:01:46.127Z,10.67
2017-11-20T15:04:12.717Z,11.07
2017-11-20T15:06:39.539Z,12.00
2017-11-20T15:09:06.144Z,11.50
2017-11-20T15:11:32.834Z,11.40
2017-11-20T15:13:59.472Z,11.10
2017-11-20T15:16:26.169Z,11.60
2017-11-20T15:18:52.804Z,11.47
2017-11-20T15:21:19.413Z,10.03
2017-11-20T15:23:46.100Z,10.90
2017-11-20T15:26:12.732Z,12.20
2017-11-20T15:28:39.391Z,12.37
2017-11-20T15:31:06.051Z,13.10
2017-11-20T15:33:32.729Z,11.17
2017-11-20T15:35:59.315Z,12.00
2017-11-20T15:38:26.054Z,11.03
2017-11-20T15:40:52.699Z,11.60
2017-11-20T15:43:19.328Z,13.00
2017-11-20T15:45:46.046Z,12.73
2017-11-20T15:48:12.726Z,13.07
2017-11-20T15:50:39.403Z,12.47
2017-11-20T15:53:06.141Z,14.10
2017-11-20T15:55:32.756Z,12.87
2017-11-20T15:57:59.704Z,12.30
2017-11-20T16:00:26.320Z,13.57
2017-11-20T16:02:52.914Z,13.07
2017-11-20T16:05:19.540Z,12.20
2017-11-20T16:07:46.140Z,13.90
2017-11-20T16:10:12.785Z,11.90
2017-11-20T16:12:39.411Z,12.83
2017-11-20T16:15:06.010Z,13.83
2017-11-20T16:17:32.685Z,13.00
2017-11-20T16:19:59.342Z,12.43
2017-11-20T16:22:25.958Z,14.07
2017-11-20T16:24:52.560Z,13.00
2017-11-20T16:27:19.234Z,13.30
2017-11-20T16:29:45.846Z,12.63
2017-11-20T16:32:12.503Z,12.57
2017-11-20T16:34:39.150Z,12.47
2017-11-20T16:37:05.992Z,13.60
2017-11-20T16:39:32.644Z,13.53
2017-11-20T16:41:59.296Z,14.17
2017-11-20T16:44:25.924Z,15.43
2017-11-20T16:46:52.524Z,15.47
2017-11-20T16:49:19.173Z,14.93
2017-11-20T16:51:45.778Z,16.07
2017-11-20T16:54:12.409Z,15.73
2017-11-20T16:56:38.997Z,17.00
2017-11-20T16:59:08.742Z,12.40
2017-11-20T17:01:42.020Z,13.80
2017-11-20T17:04:08.633Z,14.63
2017-11-20T17:06:35.281Z,13.93
2017-11-20T17:09:03.535Z,13.40
2017-11-20T17:11:32.745Z,15.53
2017-11-20T17:14:00.093Z,13.50
2017-11-20T17:16:28.392Z,13.80
2017-11-20T17:18:57.148Z,15.87
2017-11-20T17:21:23.885Z,15.50
2017-11-20T17:23:50.518Z,13.60
2017-11-20T17:26:17.306Z,12.97
2017-11-20T17:28:43.956Z,14.68
2017-11-20T17:31:10.574Z,14.70
2017-11-20T17:33:38.559Z,14.00
2017-11-20T17:36:05.282Z,14.70
2017-11-20T17:38:32.124Z,14.20
2017-11-20T17:41:02.019Z,15.27
2017-11-20T17:43:29.547Z,15.20
2017-11-20T17:45:56.277Z,14.47
2017-11-20T17:48:22.904Z,14.53
2017-11-20T17:50:49.523Z,15.50
2017-11-20T17:53:16.144Z,14.77
2017-11-20T17:55:42.772Z,15.40
2017-11-20T17:58:09.414Z,14.87
2017-11-20T18:00:36.043Z,13.93
2017-11-20T18:03:02.722Z,13.17
2017-11-20T18:05:29.388Z,15.90
2017-11-20T18:07:56.032Z,13.10
2017-11-20T18:10:22.677Z,12.47
2017-11-20T18:12:49.795Z,14.00
2017-11-20T18:15:16.578Z,13.10
2017-11-20T18:17:43.721Z,13.57
2017-11-20T18:20:11.710Z,15.00
2017-11-20T18:22:38.930Z,15.17
2017-11-20T18:25:06.097Z,15.37
2017-11-20T18:27:32.766Z,12.90
2017-11-20T18:29:59.430Z,14.43
2017-11-20T18:32:26.276Z,15.10
2017-11-20T18:34:52.902Z,16.30
2017-11-20T18:37:19.508Z,13.93
2017-11-20T18:39:46.195Z,13.10
2017-11-20T18:42:12.826Z,15.07
2017-11-20T18:44:39.458Z,16.93
2017-11-20T18:47:06.141Z,15.87
2017-11-20T18:49:32.902Z,16.73
2017-11-20T19:35:38.346Z,18.57
2017-11-20T19:38:05.643Z,17.87
2017-11-20T19:40:32.278Z,19.87
2017-11-20T19:42:58.920Z,16.70
2017-11-20T19:45:25.773Z,19.10
2017-11-20T19:47:52.741Z,18.07
2017-11-20T19:50:19.374Z,18.93
2017-11-20T19:52:48.880Z,21.00
2017-11-20T19:55:15.832Z,17.20
2017-11-20T19:57:43.062Z,17.67
2017-11-20T20:00:10.567Z,21.20
2017-11-20T20:02:40.059Z,18.17
2017-11-20T20:05:06.785Z,16.70
2017-11-20T20:07:34.017Z,17.37
2017-11-20T20:10:01.308Z,18.10
2017-11-20T20:12:28.300Z,16.93
2017-11-20T20:15:00.985Z,18.27
2017-11-20T20:17:27.780Z,17.43
2017-11-20T20:19:54.478Z,17.77
2017-11-20T20:22:21.284Z,18.57
2017-11-20T20:24:47.911Z,18.10
2017-11-20T20:27:14.569Z,18.50
2017-11-20T20:29:41.220Z,17.63
2017-11-20T20:32:07.883Z,17.90
2017-11-20T20:34:34.577Z,19.13
2017-11-20T20:37:01.258Z,17.70
2017-11-20T20:39:27.887Z,18.97
2017-11-20T20:41:54.501Z,20.47
2017-11-20T20:44:21.186Z,19.60
2017-11-20T20:46:47.847Z,20.37
2017-11-20T20:49:14.508Z,19.53
2017-11-20T20:51:41.182Z,17.63
2017-11-20T20:54:09.921Z,17.70
2017-11-20T20:56:37.569Z,18.17
2017-11-20T20:59:04.259Z,19.60
2017-11-20T21:01:31.003Z,20.53
2017-11-20T21:04:00.245Z,19.90
2017-11-20T21:06:26.969Z,20.40
2017-11-20T21:08:53.852Z,17.37
2017-11-20T21:11:27.350Z,18.00
2017-11-20T21:13:53.966Z,19.00
2017-11-20T21:16:20.662Z,15.57
2017-11-20T21:18:47.286Z,16.00
2017-11-20T21:21:13.888Z,15.03
2017-11-20T21:23:40.625Z,15.70
2017-11-20T21:26:07.259Z,14.67
2017-11-20T21:28:33.895Z,14.57
2017-11-20T21:31:00.515Z,12.57
2017-11-20T21:33:27.318Z,13.90
2017-11-20T21:35:54.024Z,13.23
2017-11-20T21:38:20.627Z,14.10
2017-11-20T21:40:47.229Z,13.80
2017-11-20T21:43:13.869Z,14.00
2017-11-20T21:45:40.561Z,15.50
2017-11-20T21:48:07.259Z,14.40
2017-11-20T21:50:34.121Z,13.80
2017-11-20T21:53:00.804Z,12.67
2017-11-20T21:55:27.607Z,12.70
2017-11-20T21:57:54.342Z,12.43
2017-11-20T22:00:20.997Z,14.03
2017-11-20T22:02:47.619Z,12.87
2017-11-20T22:05:14.269Z,12.00
2017-11-20T22:07:40.872Z,10.93
2017-11-20T22:10:07.508Z,11.00
2017-11-20T22:12:40.000Z,10.73
2017-11-20T22:15:06.745Z,9.50
2017-11-20T22:17:33.448Z,9.20
2017-11-20T22:20:00.062Z,10.20
2017-11-20T22:22:26.901Z,11.43
2017-11-20T22:24:53.531Z,9.83
2017-11-20T22:27:20.166Z,9.83
2017-11-20T22:29:46.776Z,9.80
2017-11-20T22:32:13.402Z,10.23
2017-11-20T22:34:40.103Z,11.60
2017-11-20T22:37:06.826Z,11.60
2017-11-20T22:39:33.421Z,9.33
2017-11-20T22:42:01.614Z,9.10
2017-11-20T22:44:28.280Z,9.10
2017-11-20T22:46:54.900Z,8.90
2017-11-20T22:49:21.529Z,8.30
2017-11-20T22:51:48.253Z,8.80
2017-11-20T22:54:14.889Z,7.80
2017-11-20T22:56:41.523Z,7.30
2017-11-20T22:59:08.137Z,7.70
2017-11-20T23:01:34.757Z,7.47
2017-11-20T23:04:01.396Z,7.10
2017-11-20T23:06:28.016Z,6.60
2017-11-20T23:08:54.630Z,6.03
2017-11-20T23:11:21.293Z,6.80
2017-11-20T23:13:47.890Z,6.33
2017-11-20T23:16:14.500Z,6.73
2017-11-20T23:18:41.084Z,6.50
2017-11-20T23:21:07.732Z,5.00
2017-11-20T23:23:34.336Z,4.70
2017-11-20T23:26:00.970Z,4.80
2017-11-20T23:28:27.555Z,5.40
2017-11-20T23:30:54.261Z,4.57
2017-11-20T23:33:20.864Z,4.40
2017-11-20T23:35:47.472Z,4.10
2017-11-20T23:38:14.059Z,4.37
2017-11-20T23:40:40.663Z,3.60
2017-11-20T23:43:07.267Z,3.60
2017-11-20T23:45:33.870Z,3.47
2017-11-20T23:48:00.477Z,4.10
2017-11-20T23:50:27.085Z,3.57
2017-11-20T23:52:53.712Z,3.47
2017-11-20T23:55:20.314Z,3.20
2017-11-20T23:57:46.938Z,3.63
